sensor_id;sensor_type;location;lat;lon;timestamp;P1;durP1;ratioP1;P2;durP2;ratioP2
59922;SDS011;45778;51.142;3.732;2023-07-02T00:02:20;35.78;;;16.02;;
59922;SDS011;45778;51.142;3.732;2023-07-02T00:04:47;31.88;;;16.25;;
59922;SDS011;45778;51.142;3.732;2023-07-02T00:07:12;34.00;;;15.82;;
59922;SDS011;45778;51.142;3.732;2023-07-02T00:09:40;28.33;;;15.63;;
59922;SDS011;45778;51.142;3.732;2023-07-02T00:12:06;35.08;;;17.25;;
59922;SDS011;45778;51.142;3.732;2023-07-02T00:14:32;32.60;;;15.85;;
59922;SDS011;45778;51.142;3.732;2023-07-02T00:16:57;31.88;;;15.63;;
59922;SDS011;45778;51.142;3.732;2023-07-02T00:19:24;28.98;;;15.70;;
59922;SDS011;45778;51.142;3.732;2023-07-02T00:21:50;36.33;;;16.42;;
59922;SDS011;45778;51.142;3.732;2023-07-02T00:24:15;37.95;;;16.80;;
59922;SDS011;45778;51.142;3.732;2023-07-02T00:26:41;34.33;;;16.80;;
59922;SDS011;45778;51.142;3.732;2023-07-02T00:29:08;31.80;;;15.73;;
59922;SDS011;45778;51.142;3.732;2023-07-02T00:31:34;35.17;;;17.50;;
59922;SDS011;45778;51.142;3.732;2023-07-02T00:34:00;39.88;;;18.80;;
59922;SDS011;45778;51.142;3.732;2023-07-02T00:36:27;44.75;;;20.83;;
59922;SDS011;45778;51.142;3.732;2023-07-02T00:38:56;34.10;;;17.67;;
59922;SDS011;45778;51.142;3.732;2023-07-02T00:41:22;34.25;;;17.20;;
59922;SDS011;45778;51.142;3.732;2023-07-02T00:43:48;38.80;;;18.90;;
59922;SDS011;45778;51.142;3.732;2023-07-02T00:46:14;40.08;;;17.25;;
59922;SDS011;45778;51.142;3.732;2023-07-02T00:48:48;34.47;;;16.77;;
59922;SDS011;45778;51.142;3.732;2023-07-02T00:51:16;36.67;;;17.55;;
59922;SDS011;45778;51.142;3.732;2023-07-02T00:53:46;34.58;;;16.95;;
59922;SDS011;45778;51.142;3.732;2023-07-02T00:56:13;33.25;;;15.98;;
59922;SDS011;45778;51.142;3.732;2023-07-02T00:58:40;36.30;;;18.05;;
59922;SDS011;45778;51.142;3.732;2023-07-02T01:01:15;40.37;;;18.33;;
59922;SDS011;45778;51.142;3.732;2023-07-02T01:03:55;36.55;;;17.60;;
59922;SDS011;45778;51.142;3.732;2023-07-02T01:06:28;37.25;;;18.30;;
59922;SDS011;45778;51.142;3.732;2023-07-02T01:08:56;41.70;;;17.75;;
59922;SDS011;45778;51.142;3.732;2023-07-02T01:11:25;37.67;;;19.40;;
59922;SDS011;45778;51.142;3.732;2023-07-02T01:16:37;40.05;;;18.63;;
59922;SDS011;45778;51.142;3.732;2023-07-02T01:19:10;37.00;;;17.23;;
59922;SDS011;45778;51.142;3.732;2023-07-02T01:21:38;37.80;;;19.00;;
59922;SDS011;45778;51.142;3.732;2023-07-02T01:24:04;42.92;;;19.50;;
59922;SDS011;45778;51.142;3.732;2023-07-02T01:26:31;35.17;;;18.33;;
59922;SDS011;45778;51.142;3.732;2023-07-02T01:28:59;40.53;;;19.75;;
59922;SDS011;45778;51.142;3.732;2023-07-02T01:31:25;37.65;;;19.65;;
59922;SDS011;45778;51.142;3.732;2023-07-02T01:33:51;37.00;;;19.02;;
59922;SDS011;45778;51.142;3.732;2023-07-02T01:36:17;36.72;;;18.17;;
59922;SDS011;45778;51.142;3.732;2023-07-02T01:38:43;41.75;;;19.40;;
59922;SDS011;45778;51.142;3.732;2023-07-02T01:41:09;44.60;;;18.35;;
59922;SDS011;45778;51.142;3.732;2023-07-02T01:43:34;35.88;;;18.27;;
59922;SDS011;45778;51.142;3.732;2023-07-02T01:46:00;45.63;;;19.90;;
59922;SDS011;45778;51.142;3.732;2023-07-02T01:48:26;38.70;;;19.45;;
59922;SDS011;45778;51.142;3.732;2023-07-02T01:50:52;41.80;;;18.98;;
59922;SDS011;45778;51.142;3.732;2023-07-02T01:53:18;39.22;;;18.83;;
59922;SDS011;45778;51.142;3.732;2023-07-02T01:55:44;38.08;;;18.98;;
59922;SDS011;45778;51.142;3.732;2023-07-02T01:58:09;40.17;;;18.30;;
59922;SDS011;45778;51.142;3.732;2023-07-02T02:00:35;43.65;;;21.05;;
59922;SDS011;45778;51.142;3.732;2023-07-02T02:03:01;37.58;;;19.85;;
59922;SDS011;45778;51.142;3.732;2023-07-02T02:05:27;39.83;;;18.90;;
59922;SDS011;45778;51.142;3.732;2023-07-02T02:07:52;43.78;;;20.15;;
59922;SDS011;45778;51.142;3.732;2023-07-02T02:10:18;42.30;;;20.30;;
59922;SDS011;45778;51.142;3.732;2023-07-02T02:12:44;43.58;;;18.25;;
59922;SDS011;45778;51.142;3.732;2023-07-02T02:15:10;40.83;;;19.33;;
59922;SDS011;45778;51.142;3.732;2023-07-02T02:17:38;40.78;;;19.15;;
59922;SDS011;45778;51.142;3.732;2023-07-02T02:20:05;36.25;;;19.50;;
59922;SDS011;45778;51.142;3.732;2023-07-02T02:22:31;43.30;;;20.70;;
59922;SDS011;45778;51.142;3.732;2023-07-02T02:24:57;35.00;;;19.85;;
59922;SDS011;45778;51.142;3.732;2023-07-02T02:27:23;41.55;;;20.48;;
59922;SDS011;45778;51.142;3.732;2023-07-02T02:29:48;45.30;;;19.98;;
59922;SDS011;45778;51.142;3.732;2023-07-02T02:32:14;43.13;;;19.10;;
59922;SDS011;45778;51.142;3.732;2023-07-02T02:34:42;42.97;;;18.92;;
59922;SDS011;45778;51.142;3.732;2023-07-02T02:37:08;43.30;;;18.95;;
59922;SDS011;45778;51.142;3.732;2023-07-02T02:39:33;42.58;;;18.98;;
59922;SDS011;45778;51.142;3.732;2023-07-02T02:41:59;38.95;;;17.85;;
59922;SDS011;45778;51.142;3.732;2023-07-02T02:44:24;41.25;;;19.13;;
59922;SDS011;45778;51.142;3.732;2023-07-02T02:46:50;41.13;;;18.50;;
59922;SDS011;45778;51.142;3.732;2023-07-02T02:49:17;40.38;;;18.48;;
59922;SDS011;45778;51.142;3.732;2023-07-02T02:51:42;40.25;;;21.10;;
59922;SDS011;45778;51.142;3.732;2023-07-02T02:54:08;45.10;;;17.77;;
59922;SDS011;45778;51.142;3.732;2023-07-02T02:56:34;41.08;;;19.17;;
59922;SDS011;45778;51.142;3.732;2023-07-02T02:58:59;37.28;;;19.05;;
59922;SDS011;45778;51.142;3.732;2023-07-02T03:01:25;38.08;;;19.08;;
59922;SDS011;45778;51.142;3.732;2023-07-02T03:03:55;44.15;;;20.50;;
59922;SDS011;45778;51.142;3.732;2023-07-02T03:06:20;42.10;;;20.10;;
59922;SDS011;45778;51.142;3.732;2023-07-02T03:08:46;35.65;;;19.35;;
59922;SDS011;45778;51.142;3.732;2023-07-02T03:11:12;39.38;;;19.40;;
59922;SDS011;45778;51.142;3.732;2023-07-02T03:13:37;43.20;;;19.70;;
59922;SDS011;45778;51.142;3.732;2023-07-02T03:16:03;44.42;;;20.20;;
59922;SDS011;45778;51.142;3.732;2023-07-02T03:18:29;43.75;;;19.75;;
59922;SDS011;45778;51.142;3.732;2023-07-02T03:20:55;38.22;;;18.10;;
59922;SDS011;45778;51.142;3.732;2023-07-02T03:23:20;35.42;;;18.77;;
59922;SDS011;45778;51.142;3.732;2023-07-02T03:25:46;38.65;;;18.20;;
59922;SDS011;45778;51.142;3.732;2023-07-02T03:28:12;36.47;;;18.20;;
59922;SDS011;45778;51.142;3.732;2023-07-02T03:30:37;36.90;;;18.58;;
59922;SDS011;45778;51.142;3.732;2023-07-02T03:33:03;35.83;;;18.75;;
59922;SDS011;45778;51.142;3.732;2023-07-02T03:35:29;35.58;;;18.25;;
59922;SDS011;45778;51.142;3.732;2023-07-02T03:37:54;35.80;;;18.38;;
59922;SDS011;45778;51.142;3.732;2023-07-02T03:40:20;38.33;;;18.30;;
59922;SDS011;45778;51.142;3.732;2023-07-02T03:42:45;41.75;;;20.30;;
59922;SDS011;45778;51.142;3.732;2023-07-02T03:45:11;32.97;;;17.63;;
59922;SDS011;45778;51.142;3.732;2023-07-02T03:47:37;38.30;;;19.25;;
59922;SDS011;45778;51.142;3.732;2023-07-02T03:50:02;43.28;;;19.25;;
59922;SDS011;45778;51.142;3.732;2023-07-02T03:52:28;39.08;;;17.83;;
59922;SDS011;45778;51.142;3.732;2023-07-02T03:54:54;38.22;;;19.17;;
59922;SDS011;45778;51.142;3.732;2023-07-02T03:57:20;39.03;;;20.08;;
59922;SDS011;45778;51.142;3.732;2023-07-02T03:59:45;37.42;;;18.60;;
59922;SDS011;45778;51.142;3.732;2023-07-02T04:02:11;38.63;;;19.58;;
59922;SDS011;45778;51.142;3.732;2023-07-02T04:04:37;34.88;;;18.77;;
59922;SDS011;45778;51.142;3.732;2023-07-02T04:07:02;41.05;;;19.73;;
59922;SDS011;45778;51.142;3.732;2023-07-02T04:09:28;38.67;;;19.25;;
59922;SDS011;45778;51.142;3.732;2023-07-02T04:11:54;35.75;;;18.80;;
59922;SDS011;45778;51.142;3.732;2023-07-02T04:14:20;45.33;;;18.75;;
59922;SDS011;45778;51.142;3.732;2023-07-02T04:16:45;43.08;;;19.80;;
59922;SDS011;45778;51.142;3.732;2023-07-02T04:19:11;42.83;;;20.05;;
59922;SDS011;45778;51.142;3.732;2023-07-02T04:21:37;41.03;;;18.73;;
59922;SDS011;45778;51.142;3.732;2023-07-02T04:24:02;37.78;;;19.25;;
59922;SDS011;45778;51.142;3.732;2023-07-02T04:26:28;37.15;;;20.23;;
59922;SDS011;45778;51.142;3.732;2023-07-02T04:28:54;38.15;;;18.23;;
59922;SDS011;45778;51.142;3.732;2023-07-02T04:31:20;46.65;;;21.15;;
59922;SDS011;45778;51.142;3.732;2023-07-02T04:33:46;38.65;;;21.13;;
59922;SDS011;45778;51.142;3.732;2023-07-02T04:36:12;41.92;;;20.58;;
59922;SDS011;45778;51.142;3.732;2023-07-02T04:38:38;42.53;;;19.92;;
59922;SDS011;45778;51.142;3.732;2023-07-02T04:41:04;41.03;;;20.50;;
59922;SDS011;45778;51.142;3.732;2023-07-02T04:43:31;40.05;;;19.13;;
59922;SDS011;45778;51.142;3.732;2023-07-02T04:45:58;37.88;;;19.20;;
59922;SDS011;45778;51.142;3.732;2023-07-02T04:48:23;41.13;;;20.95;;
59922;SDS011;45778;51.142;3.732;2023-07-02T04:50:49;41.08;;;20.05;;
59922;SDS011;45778;51.142;3.732;2023-07-02T04:53:15;41.50;;;19.95;;
59922;SDS011;45778;51.142;3.732;2023-07-02T04:55:41;34.47;;;17.50;;
59922;SDS011;45778;51.142;3.732;2023-07-02T04:58:06;37.40;;;18.73;;
59922;SDS011;45778;51.142;3.732;2023-07-02T05:00:32;33.40;;;18.48;;
59922;SDS011;45778;51.142;3.732;2023-07-02T05:02:58;41.08;;;18.00;;
59922;SDS011;45778;51.142;3.732;2023-07-02T05:05:24;32.03;;;15.55;;
59922;SDS011;45778;51.142;3.732;2023-07-02T05:07:49;24.83;;;13.73;;
59922;SDS011;45778;51.142;3.732;2023-07-02T05:10:15;28.55;;;14.23;;
59922;SDS011;45778;51.142;3.732;2023-07-02T05:12:40;23.55;;;13.02;;
59922;SDS011;45778;51.142;3.732;2023-07-02T05:15:06;26.83;;;12.73;;
59922;SDS011;45778;51.142;3.732;2023-07-02T05:17:32;21.80;;;11.55;;
59922;SDS011;45778;51.142;3.732;2023-07-02T05:20:00;21.40;;;10.25;;
59922;SDS011;45778;51.142;3.732;2023-07-02T05:22:27;25.25;;;11.70;;
59922;SDS011;45778;51.142;3.732;2023-07-02T05:24:52;24.60;;;10.45;;
59922;SDS011;45778;51.142;3.732;2023-07-02T05:27:18;25.63;;;10.40;;
59922;SDS011;45778;51.142;3.732;2023-07-02T05:29:43;25.10;;;10.73;;
59922;SDS011;45778;51.142;3.732;2023-07-02T05:32:09;19.58;;;9.48;;
59922;SDS011;45778;51.142;3.732;2023-07-02T05:34:35;22.45;;;10.15;;
59922;SDS011;45778;51.142;3.732;2023-07-02T05:37:00;24.13;;;9.30;;
59922;SDS011;45778;51.142;3.732;2023-07-02T05:39:26;19.35;;;9.32;;
59922;SDS011;45778;51.142;3.732;2023-07-02T05:41:52;18.65;;;8.38;;
59922;SDS011;45778;51.142;3.732;2023-07-02T05:44:18;20.58;;;7.95;;
59922;SDS011;45778;51.142;3.732;2023-07-02T05:46:44;17.40;;;8.73;;
59922;SDS011;45778;51.142;3.732;2023-07-02T05:49:10;17.77;;;8.75;;
59922;SDS011;45778;51.142;3.732;2023-07-02T05:51:36;18.27;;;8.90;;
59922;SDS011;45778;51.142;3.732;2023-07-02T05:54:01;14.35;;;7.40;;
59922;SDS011;45778;51.142;3.732;2023-07-02T05:56:27;17.65;;;7.43;;
59922;SDS011;45778;51.142;3.732;2023-07-02T05:58:53;15.75;;;8.70;;
59922;SDS011;45778;51.142;3.732;2023-07-02T06:01:18;15.55;;;7.68;;
59922;SDS011;45778;51.142;3.732;2023-07-02T06:03:44;16.75;;;7.55;;
59922;SDS011;45778;51.142;3.732;2023-07-02T06:06:10;18.40;;;8.38;;
59922;SDS011;45778;51.142;3.732;2023-07-02T06:08:36;17.27;;;6.63;;
59922;SDS011;45778;51.142;3.732;2023-07-02T06:11:02;16.98;;;7.60;;
59922;SDS011;45778;51.142;3.732;2023-07-02T06:13:28;14.35;;;5.63;;
59922;SDS011;45778;51.142;3.732;2023-07-02T06:15:53;13.48;;;6.50;;
59922;SDS011;45778;51.142;3.732;2023-07-02T06:18:19;16.50;;;6.82;;
59922;SDS011;45778;51.142;3.732;2023-07-02T06:20:45;15.35;;;6.07;;
59922;SDS011;45778;51.142;3.732;2023-07-02T06:23:11;16.17;;;6.22;;
59922;SDS011;45778;51.142;3.732;2023-07-02T06:25:37;15.07;;;6.32;;
59922;SDS011;45778;51.142;3.732;2023-07-02T06:28:03;12.48;;;6.00;;
59922;SDS011;45778;51.142;3.732;2023-07-02T06:30:28;12.50;;;6.32;;
59922;SDS011;45778;51.142;3.732;2023-07-02T06:32:54;14.25;;;6.05;;
59922;SDS011;45778;51.142;3.732;2023-07-02T06:35:20;12.63;;;5.68;;
59922;SDS011;45778;51.142;3.732;2023-07-02T06:37:46;12.38;;;5.10;;
59922;SDS011;45778;51.142;3.732;2023-07-02T06:40:12;14.77;;;4.97;;
59922;SDS011;45778;51.142;3.732;2023-07-02T06:42:38;13.10;;;4.85;;
59922;SDS011;45778;51.142;3.732;2023-07-02T06:45:05;13.50;;;5.05;;
59922;SDS011;45778;51.142;3.732;2023-07-02T06:47:31;14.73;;;5.10;;
59922;SDS011;45778;51.142;3.732;2023-07-02T06:49:57;11.77;;;5.22;;
59922;SDS011;45778;51.142;3.732;2023-07-02T06:52:23;11.70;;;5.07;;
59922;SDS011;45778;51.142;3.732;2023-07-02T06:54:49;11.35;;;5.35;;
59922;SDS011;45778;51.142;3.732;2023-07-02T06:57:15;10.30;;;4.43;;
59922;SDS011;45778;51.142;3.732;2023-07-02T06:59:40;11.25;;;4.63;;
59922;SDS011;45778;51.142;3.732;2023-07-02T07:02:06;11.90;;;5.65;;
59922;SDS011;45778;51.142;3.732;2023-07-02T07:04:32;17.10;;;5.05;;
59922;SDS011;45778;51.142;3.732;2023-07-02T07:06:59;11.77;;;4.30;;
59922;SDS011;45778;51.142;3.732;2023-07-02T07:09:27;10.20;;;4.90;;
59922;SDS011;45778;51.142;3.732;2023-07-02T07:11:53;12.00;;;5.60;;
59922;SDS011;45778;51.142;3.732;2023-07-02T07:14:19;12.75;;;4.88;;
59922;SDS011;45778;51.142;3.732;2023-07-02T07:16:45;11.15;;;4.88;;
59922;SDS011;45778;51.142;3.732;2023-07-02T07:19:10;10.60;;;3.95;;
59922;SDS011;45778;51.142;3.732;2023-07-02T07:21:36;11.68;;;4.45;;
59922;SDS011;45778;51.142;3.732;2023-07-02T07:24:02;12.63;;;5.07;;
59922;SDS011;45778;51.142;3.732;2023-07-02T07:26:28;15.23;;;4.90;;
59922;SDS011;45778;51.142;3.732;2023-07-02T07:28:53;11.90;;;4.63;;
59922;SDS011;45778;51.142;3.732;2023-07-02T07:31:21;13.52;;;5.93;;
59922;SDS011;45778;51.142;3.732;2023-07-02T07:33:46;11.38;;;5.38;;
59922;SDS011;45778;51.142;3.732;2023-07-02T07:36:12;13.73;;;5.28;;
59922;SDS011;45778;51.142;3.732;2023-07-02T07:38:39;15.68;;;5.20;;
59922;SDS011;45778;51.142;3.732;2023-07-02T07:41:04;11.43;;;4.88;;
59922;SDS011;45778;51.142;3.732;2023-07-02T07:43:30;12.80;;;5.40;;
59922;SDS011;45778;51.142;3.732;2023-07-02T07:45:56;12.00;;;5.97;;
59922;SDS011;45778;51.142;3.732;2023-07-02T07:48:22;14.30;;;6.00;;
59922;SDS011;45778;51.142;3.732;2023-07-02T07:50:47;12.32;;;5.50;;
59922;SDS011;45778;51.142;3.732;2023-07-02T07:53:13;11.23;;;5.63;;
59922;SDS011;45778;51.142;3.732;2023-07-02T07:55:39;14.15;;;6.30;;
59922;SDS011;45778;51.142;3.732;2023-07-02T07:58:05;15.07;;;6.50;;
59922;SDS011;45778;51.142;3.732;2023-07-02T08:00:31;16.13;;;7.13;;
59922;SDS011;45778;51.142;3.732;2023-07-02T08:02:56;15.27;;;7.38;;
59922;SDS011;45778;51.142;3.732;2023-07-02T08:05:24;18.90;;;7.20;;
59922;SDS011;45778;51.142;3.732;2023-07-02T08:07:50;16.02;;;7.82;;
59922;SDS011;45778;51.142;3.732;2023-07-02T08:10:16;17.63;;;8.50;;
59922;SDS011;45778;51.142;3.732;2023-07-02T08:12:42;14.27;;;7.97;;
59922;SDS011;45778;51.142;3.732;2023-07-02T08:15:07;18.83;;;8.20;;
59922;SDS011;45778;51.142;3.732;2023-07-02T08:17:33;20.83;;;8.68;;
59922;SDS011;45778;51.142;3.732;2023-07-02T08:19:59;20.52;;;8.20;;
59922;SDS011;45778;51.142;3.732;2023-07-02T08:22:25;26.02;;;9.13;;
59922;SDS011;45778;51.142;3.732;2023-07-02T08:24:51;19.23;;;8.73;;
59922;SDS011;45778;51.142;3.732;2023-07-02T08:27:16;23.45;;;9.07;;
59922;SDS011;45778;51.142;3.732;2023-07-02T08:29:47;21.27;;;8.77;;
59922;SDS011;45778;51.142;3.732;2023-07-02T08:32:13;23.55;;;9.88;;
59922;SDS011;45778;51.142;3.732;2023-07-02T08:34:39;21.90;;;9.65;;
59922;SDS011;45778;51.142;3.732;2023-07-02T08:37:05;20.77;;;9.68;;
59922;SDS011;45778;51.142;3.732;2023-07-02T08:39:31;21.88;;;9.02;;
59922;SDS011;45778;51.142;3.732;2023-07-02T08:41:56;24.02;;;9.93;;
59922;SDS011;45778;51.142;3.732;2023-07-02T08:44:22;17.67;;;8.60;;
59922;SDS011;45778;51.142;3.732;2023-07-02T08:46:49;21.58;;;8.90;;
59922;SDS011;45778;51.142;3.732;2023-07-02T08:49:21;18.55;;;8.20;;
59922;SDS011;45778;51.142;3.732;2023-07-02T08:51:47;17.60;;;7.80;;
59922;SDS011;45778;51.142;3.732;2023-07-02T08:54:13;17.27;;;7.05;;
59922;SDS011;45778;51.142;3.732;2023-07-02T08:56:42;18.83;;;7.70;;
59922;SDS011;45778;51.142;3.732;2023-07-02T08:59:08;22.48;;;8.55;;
59922;SDS011;45778;51.142;3.732;2023-07-02T09:04:29;22.10;;;7.85;;
59922;SDS011;45778;51.142;3.732;2023-07-02T09:07:05;13.52;;;5.90;;
59922;SDS011;45778;51.142;3.732;2023-07-02T09:09:32;13.98;;;5.68;;
59922;SDS011;45778;51.142;3.732;2023-07-02T09:12:09;11.90;;;5.10;;
59922;SDS011;45778;51.142;3.732;2023-07-02T09:14:35;13.63;;;5.47;;
59922;SDS011;45778;51.142;3.732;2023-07-02T09:17:01;10.95;;;4.97;;
59922;SDS011;45778;51.142;3.732;2023-07-02T09:19:27;12.90;;;5.13;;
59922;SDS011;45778;51.142;3.732;2023-07-02T09:21:53;10.25;;;4.78;;
59922;SDS011;45778;51.142;3.732;2023-07-02T09:24:23;15.48;;;5.50;;
59922;SDS011;45778;51.142;3.732;2023-07-02T09:26:50;12.90;;;4.90;;
59922;SDS011;45778;51.142;3.732;2023-07-02T09:29:22;12.48;;;5.22;;
59922;SDS011;45778;51.142;3.732;2023-07-02T09:31:49;9.93;;;5.30;;
59922;SDS011;45778;51.142;3.732;2023-07-02T09:34:15;10.27;;;4.95;;
59922;SDS011;45778;51.142;3.732;2023-07-02T09:36:41;8.73;;;4.53;;
59922;SDS011;45778;51.142;3.732;2023-07-02T09:39:12;13.27;;;5.20;;
59922;SDS011;45778;51.142;3.732;2023-07-02T09:41:42;12.70;;;5.40;;
59922;SDS011;45778;51.142;3.732;2023-07-02T09:44:09;9.73;;;4.40;;
59922;SDS011;45778;51.142;3.732;2023-07-02T09:46:41;10.85;;;4.93;;
59922;SDS011;45778;51.142;3.732;2023-07-02T09:49:11;10.75;;;4.05;;
59922;SDS011;45778;51.142;3.732;2023-07-02T09:51:39;11.85;;;4.47;;
59922;SDS011;45778;51.142;3.732;2023-07-02T09:54:07;11.68;;;4.25;;
59922;SDS011;45778;51.142;3.732;2023-07-02T09:56:33;11.35;;;4.20;;
59922;SDS011;45778;51.142;3.732;2023-07-02T09:58:58;10.25;;;5.10;;
59922;SDS011;45778;51.142;3.732;2023-07-02T10:01:24;6.95;;;3.85;;
59922;SDS011;45778;51.142;3.732;2023-07-02T10:03:50;14.43;;;5.30;;
59922;SDS011;45778;51.142;3.732;2023-07-02T10:06:15;10.52;;;4.75;;
59922;SDS011;45778;51.142;3.732;2023-07-02T10:08:51;8.80;;;4.30;;
59922;SDS011;45778;51.142;3.732;2023-07-02T10:11:20;11.48;;;4.60;;
59922;SDS011;45778;51.142;3.732;2023-07-02T10:13:58;11.98;;;4.70;;
59922;SDS011;45778;51.142;3.732;2023-07-02T10:16:24;10.43;;;4.72;;
59922;SDS011;45778;51.142;3.732;2023-07-02T10:18:52;10.73;;;4.45;;
59922;SDS011;45778;51.142;3.732;2023-07-02T10:21:18;9.55;;;4.18;;
59922;SDS011;45778;51.142;3.732;2023-07-02T10:23:44;12.27;;;4.00;;
59922;SDS011;45778;51.142;3.732;2023-07-02T10:28:41;6.75;;;3.95;;
59922;SDS011;45778;51.142;3.732;2023-07-02T10:31:20;11.48;;;4.90;;
59922;SDS011;45778;51.142;3.732;2023-07-02T10:33:46;11.00;;;4.95;;
59922;SDS011;45778;51.142;3.732;2023-07-02T10:36:19;10.25;;;4.95;;
59922;SDS011;45778;51.142;3.732;2023-07-02T10:38:45;10.45;;;4.20;;
59922;SDS011;45778;51.142;3.732;2023-07-02T10:41:12;10.65;;;4.57;;
59922;SDS011;45778;51.142;3.732;2023-07-02T10:43:47;13.48;;;4.70;;
59922;SDS011;45778;51.142;3.732;2023-07-02T10:46:18;11.40;;;4.15;;
59922;SDS011;45778;51.142;3.732;2023-07-02T10:48:51;9.82;;;4.30;;
59922;SDS011;45778;51.142;3.732;2023-07-02T10:51:18;12.95;;;4.38;;
59922;SDS011;45778;51.142;3.732;2023-07-02T10:53:43;11.35;;;4.63;;
59922;SDS011;45778;51.142;3.732;2023-07-02T10:56:15;10.43;;;4.40;;
59922;SDS011;45778;51.142;3.732;2023-07-02T10:58:41;11.27;;;4.00;;
59922;SDS011;45778;51.142;3.732;2023-07-02T11:01:08;8.63;;;4.35;;
59922;SDS011;45778;51.142;3.732;2023-07-02T11:03:33;12.40;;;3.78;;
59922;SDS011;45778;51.142;3.732;2023-07-02T11:05:59;11.25;;;4.32;;
59922;SDS011;45778;51.142;3.732;2023-07-02T11:08:34;10.52;;;3.60;;
59922;SDS011;45778;51.142;3.732;2023-07-02T11:11:07;9.27;;;3.45;;
59922;SDS011;45778;51.142;3.732;2023-07-02T11:13:33;12.18;;;4.38;;
59922;SDS011;45778;51.142;3.732;2023-07-02T11:15:59;8.10;;;3.78;;
59922;SDS011;45778;51.142;3.732;2023-07-02T11:18:30;11.23;;;3.58;;
59922;SDS011;45778;51.142;3.732;2023-07-02T11:20:56;10.98;;;4.10;;
59922;SDS011;45778;51.142;3.732;2023-07-02T11:23:23;7.68;;;4.20;;
59922;SDS011;45778;51.142;3.732;2023-07-02T11:28:25;12.68;;;4.55;;
59922;SDS011;45778;51.142;3.732;2023-07-02T11:30:52;7.57;;;3.22;;
59922;SDS011;45778;51.142;3.732;2023-07-02T11:33:19;10.80;;;4.18;;
59922;SDS011;45778;51.142;3.732;2023-07-02T11:36:06;7.28;;;3.40;;
59922;SDS011;45778;51.142;3.732;2023-07-02T11:38:34;8.35;;;3.72;;
59922;SDS011;45778;51.142;3.732;2023-07-02T11:41:02;9.07;;;3.40;;
59922;SDS011;45778;51.142;3.732;2023-07-02T11:43:28;8.48;;;3.00;;
59922;SDS011;45778;51.142;3.732;2023-07-02T11:45:54;10.88;;;3.75;;
59922;SDS011;45778;51.142;3.732;2023-07-02T11:48:20;7.82;;;3.35;;
59922;SDS011;45778;51.142;3.732;2023-07-02T11:50:45;7.85;;;3.83;;
59922;SDS011;45778;51.142;3.732;2023-07-02T11:53:11;8.27;;;3.85;;
59922;SDS011;45778;51.142;3.732;2023-07-02T11:55:37;6.68;;;3.47;;
59922;SDS011;45778;51.142;3.732;2023-07-02T11:58:02;8.48;;;3.72;;
59922;SDS011;45778;51.142;3.732;2023-07-02T12:00:28;9.05;;;3.85;;
59922;SDS011;45778;51.142;3.732;2023-07-02T12:02:54;9.05;;;4.20;;
59922;SDS011;45778;51.142;3.732;2023-07-02T12:05:20;10.25;;;3.92;;
59922;SDS011;45778;51.142;3.732;2023-07-02T12:07:46;8.13;;;4.15;;
59922;SDS011;45778;51.142;3.732;2023-07-02T12:10:12;10.98;;;4.63;;
59922;SDS011;45778;51.142;3.732;2023-07-02T12:12:37;8.20;;;3.40;;
59922;SDS011;45778;51.142;3.732;2023-07-02T12:15:03;9.55;;;3.40;;
59922;SDS011;45778;51.142;3.732;2023-07-02T12:17:29;10.52;;;4.05;;
59922;SDS011;45778;51.142;3.732;2023-07-02T12:19:56;10.57;;;5.32;;
59922;SDS011;45778;51.142;3.732;2023-07-02T12:22:22;8.77;;;4.20;;
59922;SDS011;45778;51.142;3.732;2023-07-02T12:24:48;11.75;;;3.80;;
59922;SDS011;45778;51.142;3.732;2023-07-02T12:27:15;10.40;;;4.15;;
59922;SDS011;45778;51.142;3.732;2023-07-02T12:29:42;11.30;;;4.60;;
59922;SDS011;45778;51.142;3.732;2023-07-02T12:32:08;9.40;;;4.50;;
59922;SDS011;45778;51.142;3.732;2023-07-02T12:34:33;8.38;;;4.32;;
59922;SDS011;45778;51.142;3.732;2023-07-02T12:36:59;8.88;;;4.32;;
59922;SDS011;45778;51.142;3.732;2023-07-02T12:39:25;10.18;;;4.82;;
59922;SDS011;45778;51.142;3.732;2023-07-02T12:41:51;11.02;;;4.80;;
59922;SDS011;45778;51.142;3.732;2023-07-02T12:44:17;8.60;;;4.63;;
59922;SDS011;45778;51.142;3.732;2023-07-02T12:46:43;9.00;;;4.57;;
59922;SDS011;45778;51.142;3.732;2023-07-02T12:49:09;9.98;;;4.45;;
59922;SDS011;45778;51.142;3.732;2023-07-02T12:51:34;9.93;;;4.13;;
59922;SDS011;45778;51.142;3.732;2023-07-02T12:54:00;9.20;;;4.78;;
59922;SDS011;45778;51.142;3.732;2023-07-02T12:56:25;8.52;;;4.85;;
59922;SDS011;45778;51.142;3.732;2023-07-02T12:58:51;13.00;;;4.80;;
59922;SDS011;45778;51.142;3.732;2023-07-02T13:01:17;9.68;;;5.07;;
59922;SDS011;45778;51.142;3.732;2023-07-02T13:03:46;9.07;;;5.05;;
59922;SDS011;45778;51.142;3.732;2023-07-02T13:06:12;12.02;;;4.78;;
59922;SDS011;45778;51.142;3.732;2023-07-02T13:08:39;10.70;;;4.82;;
59922;SDS011;45778;51.142;3.732;2023-07-02T13:11:04;11.15;;;5.47;;
59922;SDS011;45778;51.142;3.732;2023-07-02T13:13:30;11.55;;;4.72;;
59922;SDS011;45778;51.142;3.732;2023-07-02T13:15:56;11.00;;;4.78;;
59922;SDS011;45778;51.142;3.732;2023-07-02T13:18:22;10.45;;;4.90;;
59922;SDS011;45778;51.142;3.732;2023-07-02T13:20:48;12.20;;;4.65;;
59922;SDS011;45778;51.142;3.732;2023-07-02T13:23:14;9.32;;;4.38;;
59922;SDS011;45778;51.142;3.732;2023-07-02T13:25:39;12.23;;;4.20;;
59922;SDS011;45778;51.142;3.732;2023-07-02T13:28:05;9.18;;;4.78;;
59922;SDS011;45778;51.142;3.732;2023-07-02T13:30:31;11.73;;;4.78;;
59922;SDS011;45778;51.142;3.732;2023-07-02T13:32:56;9.57;;;4.35;;
59922;SDS011;45778;51.142;3.732;2023-07-02T13:35:22;10.13;;;4.50;;
59922;SDS011;45778;51.142;3.732;2023-07-02T13:37:48;9.88;;;5.60;;
59922;SDS011;45778;51.142;3.732;2023-07-02T13:40:14;8.57;;;4.28;;
59922;SDS011;45778;51.142;3.732;2023-07-02T13:42:41;9.55;;;4.55;;
59922;SDS011;45778;51.142;3.732;2023-07-02T13:45:07;9.52;;;4.82;;
59922;SDS011;45778;51.142;3.732;2023-07-02T13:47:34;9.88;;;4.47;;
59922;SDS011;45778;51.142;3.732;2023-07-02T13:50:01;12.60;;;4.80;;
59922;SDS011;45778;51.142;3.732;2023-07-02T13:52:29;10.18;;;4.10;;
59922;SDS011;45778;51.142;3.732;2023-07-02T13:54:55;9.02;;;4.45;;
59922;SDS011;45778;51.142;3.732;2023-07-02T13:57:21;10.80;;;4.43;;
59922;SDS011;45778;51.142;3.732;2023-07-02T13:59:47;11.70;;;4.57;;
59922;SDS011;45778;51.142;3.732;2023-07-02T14:02:13;9.60;;;3.95;;
59922;SDS011;45778;51.142;3.732;2023-07-02T14:04:38;9.55;;;4.25;;
59922;SDS011;45778;51.142;3.732;2023-07-02T14:07:04;13.25;;;4.45;;
59922;SDS011;45778;51.142;3.732;2023-07-02T14:09:30;10.82;;;4.72;;
59922;SDS011;45778;51.142;3.732;2023-07-02T14:11:56;9.88;;;5.10;;
59922;SDS011;45778;51.142;3.732;2023-07-02T14:14:22;9.52;;;4.68;;
59922;SDS011;45778;51.142;3.732;2023-07-02T14:16:47;9.80;;;4.57;;
59922;SDS011;45778;51.142;3.732;2023-07-02T14:19:13;12.38;;;5.13;;
59922;SDS011;45778;51.142;3.732;2023-07-02T14:21:40;13.40;;;4.30;;
59922;SDS011;45778;51.142;3.732;2023-07-02T14:24:05;14.15;;;4.78;;
59922;SDS011;45778;51.142;3.732;2023-07-02T14:26:31;8.85;;;4.72;;
59922;SDS011;45778;51.142;3.732;2023-07-02T14:28:57;12.60;;;4.95;;
59922;SDS011;45778;51.142;3.732;2023-07-02T14:31:23;11.45;;;4.38;;
59922;SDS011;45778;51.142;3.732;2023-07-02T14:33:49;12.98;;;5.20;;
59922;SDS011;45778;51.142;3.732;2023-07-02T14:36:15;11.02;;;5.75;;
59922;SDS011;45778;51.142;3.732;2023-07-02T14:38:41;13.05;;;5.57;;